Prospect Creek, Prospect Cree, AK

7:10 AM AKDT on August 27, 2014 (GMT -0800)
Bettles | Change Station
CLOSE
Current Station
Airport
Location: Bettles,
Elevation: 643 ft
Nearby Weather Stations

Elev 643 ft 66.91 °N, 151.53 °W | Updated 17 minutes ago

Patches of Fog
Patches Fog
44 °F
Feels Like 42 °F
N
5
Wind Variable Wind from SSE

Today
High -- | Low -- °F
--% Chance of Precip.
Yesterday
High -- | Low -- °F
Precip. -- in
6:17 AM 9:47 PM
Waxing Crescent, 4% visible
Pressure 29.79 in
Visibility 5.0 miles
Clouds Scattered Clouds 500 ft
Mostly Cloudy 9000 ft
Windchill 42 °F
Dew Point 43 °F
Humidity 96%
Rainfall 0.00 in
Snow Depth Not available.
UV 0 out of 12
Pollen Not available.
Air Quality Not available.
Flu Activity Not available.
METAR PABT 271453Z 15004KT 5SM BCFG SCT005 BKN090 07/06 A2976 RMK AO2 SLP086 FGBNK S-W 60000 T00670061 58000

More Conditions Fewer Conditions

Pressure 29.79 in
Visibility 5.0 miles
Clouds Scattered Clouds 500 ft
Mostly Cloudy 9000 ft
Windchill 42 °F
Dew Point 43 °F
Humidity 96%
Rainfall 0.00 in
Snow Depth Not available.
UV 0 out of 12
Pollen Not available.
Air Quality Not available.
Flu Activity Not available.
METAR PABT 271453Z 15004KT 5SM BCFG SCT005 BKN090 07/06 A2976 RMK AO2 SLP086 FGBNK S-W 60000 T00670061 58000

More Conditions Fewer Conditions

10-Day Weather Forecast

Almanac

Astronomy

Aug. 27, 2014 Rise Set
Actual Time 6:17 AM AKDT 9:47 PM AKDT
Civil Twilight 5:12 AM AKDT 10:51 PM AKDT
Nautical Twilight 3:18 AM AKDT 12:40 AM AKDT
Astronomical Twilight Sun does not rise Sun does not rise
Moon 9:37 AM AKDT 9:21 PM AKDT
Length of Visible Light 17h 38m
Length of Day
15h 29m
Tomorrow will be 7m 33s shorter.
Waxing Crescent, 4% of the Moon is Illuminated
Today
Waxing Crescent
Sep 2
First Quarter
Sep 8
Full
Sep 15
Last Quarter
Sep 24
New

Today's Extremes

State Highs State Lows

Community

WunderPhotos

Upload Photos

1,747,705 photos uploaded!

Nearby

Snow Depth

Station Depth Elevation
Coldfoot 1 in 1040 ft
Atigun Pass 0 in 4800 ft
Fort Yukon 2 in 430 ft
Little Chena Ridge 1 in 2000 ft
Eagle Summit 0 in 3650 ft

Earthquake Activity

City Distance Mag. Time & Date
No recent earthquake activity has been reported nearby.
Minimum magnitude displayed is 2.5.

Coastal Water Temperatures

Place Temperature
No Stations Reporting

Nearby Weather Stations